createdAt,value
2023-02-27T00:02:22.648Z,1010.9
2023-02-27T00:17:42.109Z,1010.8
2023-02-27T00:33:01.600Z,1010.9
2023-02-27T00:48:21.092Z,1011
2023-02-27T01:03:40.583Z,1010.8
2023-02-27T01:19:00.072Z,1010.9
2023-02-27T01:34:18.533Z,1010.8
2023-02-27T01:49:38.016Z,1010.9
2023-02-27T02:04:57.502Z,1010.9
2023-02-27T02:20:16.985Z,1011
2023-02-27T02:35:36.461Z,1011
2023-02-27T02:50:55.948Z,1010.9
2023-02-27T03:06:15.425Z,1010.9
2023-02-27T03:21:34.894Z,1011.1
2023-02-27T03:36:54.394Z,1011.1
2023-02-27T03:52:13.875Z,1011.2
2023-02-27T04:07:33.342Z,1011.5
2023-02-27T04:22:52.836Z,1011.6
2023-02-27T04:38:12.275Z,1011.8
2023-02-27T04:53:30.796Z,1011.8
2023-02-27T05:08:50.243Z,1011.8
2023-02-27T05:24:09.723Z,1011.8
2023-02-27T05:39:29.174Z,1012
2023-02-27T05:54:48.608Z,1012
2023-02-27T06:10:08.049Z,1012.1
2023-02-27T06:25:27.458Z,1012.3
2023-02-27T06:40:46.896Z,1012.4
2023-02-27T06:56:06.324Z,1012.6
2023-02-27T07:11:25.771Z,1012.5
2023-02-27T07:26:45.199Z,1012.6
2023-02-27T07:42:04.641Z,1012.6
2023-02-27T07:57:24.055Z,1012.7
2023-02-27T08:12:42.529Z,1012.9
2023-02-27T08:28:01.948Z,1013
2023-02-27T08:43:21.390Z,1013
2023-02-27T08:58:40.801Z,1013.1
2023-02-27T09:14:00.233Z,1013.1
2023-02-27T09:29:19.666Z,1013.1
2023-02-27T09:44:39.106Z,1013.3
2023-02-27T09:59:58.545Z,1013.3
2023-02-27T10:15:17.958Z,1013.4
2023-02-27T10:30:37.393Z,1013.5
2023-02-27T10:45:56.823Z,1013.4
2023-02-27T11:01:16.266Z,1013.4
2023-02-27T11:16:35.683Z,1013.4
2023-02-27T11:31:54.123Z,1013.2
2023-02-27T11:47:13.553Z,1013
2023-02-27T12:02:32.998Z,1013
2023-02-27T12:17:52.419Z,1013
2023-02-27T12:33:11.855Z,1013
2023-02-27T12:48:31.273Z,1012.9
2023-02-27T13:03:50.702Z,1012.9
2023-02-27T13:19:10.128Z,1012.9
2023-02-27T13:34:29.569Z,1012.9
2023-02-27T13:49:49.005Z,1012.8
2023-02-27T14:05:08.419Z,1012.8
2023-02-27T14:20:27.866Z,1012.9
2023-02-27T14:35:47.283Z,1013
2023-02-27T14:51:05.727Z,1013.1
2023-02-27T15:06:25.169Z,1013.2
2023-02-27T15:21:44.603Z,1013.2
2023-02-27T15:37:03.051Z,1013.4
2023-02-27T15:52:22.490Z,1013.5
2023-02-27T16:07:41.921Z,1013.6
2023-02-27T16:23:01.350Z,1013.7
2023-02-27T16:38:20.784Z,1013.9
2023-02-27T16:53:40.219Z,1014.1
2023-02-27T17:08:59.699Z,1014.2
2023-02-27T17:24:19.180Z,1014.3
2023-02-27T17:39:38.648Z,1014.4
2023-02-27T17:54:58.119Z,1014.5
2023-02-27T18:10:17.613Z,1014.5
2023-02-27T18:25:37.087Z,1014.5
2023-02-27T18:40:56.566Z,1014.5
2023-02-27T18:56:15.072Z,1014.6
2023-02-27T19:11:34.533Z,1014.6
2023-02-27T19:26:54.025Z,1014.6
2023-02-27T19:42:13.492Z,1014.6
2023-02-27T19:57:32.984Z,1014.6
2023-02-27T20:12:52.446Z,1014.7
2023-02-27T20:28:11.929Z,1014.7
2023-02-27T20:43:31.415Z,1014.7
2023-02-27T20:58:50.879Z,1014.6
2023-02-27T21:14:10.354Z,1014.7
2023-02-27T21:29:29.844Z,1014.7
2023-02-27T21:44:49.304Z,1014.8
2023-02-27T22:00:08.798Z,1014.8
2023-02-27T22:15:27.272Z,1014.8
2023-02-27T22:30:46.759Z,1014.9
2023-02-27T22:46:06.238Z,1014.9
2023-02-27T23:01:25.719Z,1014.9
2023-02-27T23:16:45.208Z,1015.1
2023-02-27T23:32:04.688Z,1015.1
2023-02-27T23:47:24.167Z,1015.3
